Time;durP1;ratioP1;P1;durP2;ratioP2;P2;SDS_P1;SDS_P2;PMS_P1;PMS_P2;Temp;Humidity;BMP_temperature;BMP_pressure;BME280_temperature;BME280_humidity;BME280_pressure;Samples;Min_cycle;Max_cycle;Signal;HPM_P1;HPM_P2
2023/12/28 00:01:39;;;;;;;12.52;7.50;;;;;;;4.73;91.25;98160.88;4108116;28;20303;-89
2023/12/28 00:03:42;;;;;;;9.00;6.75;;;;;;;4.70;91.37;98161.84;4090050;28;20353;-89
2023/12/28 00:05:45;;;;;;;8.45;6.40;;;;;;;4.70;91.09;98166.16;4104411;28;20221;-88
2023/12/28 00:07:47;;;;;;;14.00;7.25;;;;;;;4.69;90.47;98165.34;4091359;28;20212;-89
2023/12/28 00:09:52;;;;;;;14.18;8.10;;;;;;;4.68;90.96;98164.59;4099985;28;20288;-89
2023/12/28 00:11:56;;;;;;;8.90;6.80;;;;;;;4.64;90.00;98150.13;4109251;28;20224;-88
2023/12/28 00:13:59;;;;;;;8.20;6.35;;;;;;;4.62;90.70;98151.94;4107223;28;20643;-87
2023/12/28 00:16:02;;;;;;;13.40;7.18;;;;;;;4.57;90.01;98151.28;4104327;28;20734;-89
2023/12/28 00:18:05;;;;;;;9.80;6.53;;;;;;;4.50;90.74;98158.47;4091771;28;20209;-88
2023/12/28 00:20:09;;;;;;;13.05;7.85;;;;;;;4.51;91.04;98159.28;4108795;28;20205;-89
2023/12/28 00:22:12;;;;;;;10.75;7.00;;;;;;;4.49;89.98;98164.53;4107265;28;20920;-88
2023/12/28 00:24:16;;;;;;;8.35;6.88;;;;;;;4.48;90.45;98175.78;4101953;28;20690;-87
2023/12/28 00:26:21;;;;;;;11.88;8.25;;;;;;;4.49;91.79;98176.59;4105535;28;20212;-87
2023/12/28 00:28:34;;;;;;;12.80;8.05;;;;;;;4.47;91.43;98174.09;4107161;28;20624;-87
2023/12/28 00:30:38;;;;;;;9.07;6.68;;;;;;;4.46;92.04;98174.97;4106936;28;20193;-89
2023/12/28 00:32:43;;;;;;;12.35;7.53;;;;;;;4.41;92.22;98174.34;4108751;28;20299;-86
2023/12/28 00:34:46;;;;;;;10.93;7.05;;;;;;;4.39;91.36;98178.75;4091607;28;20302;-89
2023/12/28 00:36:49;;;;;;;8.20;6.10;;;;;;;4.38;92.17;98183.97;4093352;28;20221;-86
2023/12/28 00:38:53;;;;;;;8.85;6.35;;;;;;;4.41;92.08;98183.84;4104104;28;20205;-87
2023/12/28 00:40:56;;;;;;;9.57;6.18;;;;;;;4.41;91.42;98182.09;4109707;28;20242;-88
2023/12/28 00:43:00;;;;;;;8.13;5.72;;;;;;;4.42;91.50;98181.19;4091946;28;20206;-88
2023/12/28 00:45:04;;;;;;;10.85;6.25;;;;;;;4.37;91.48;98185.69;4104293;28;20303;-87
2023/12/28 00:47:07;;;;;;;8.63;5.50;;;;;;;4.34;90.96;98172.91;4107279;28;20199;-88
2023/12/28 00:49:10;;;;;;;9.43;5.80;;;;;;;4.32;90.51;98177.31;4107557;28;20671;-89
2023/12/28 00:51:14;;;;;;;10.45;6.28;;;;;;;4.32;91.37;98179.91;4088518;28;20303;-89
2023/12/28 00:53:17;;;;;;;7.97;6.10;;;;;;;4.29;90.81;98169.72;4089599;28;20240;-92
2023/12/28 00:55:20;;;;;;;7.75;5.68;;;;;;;4.29;91.24;98167.13;4100386;28;20767;-90
2023/12/28 00:57:23;;;;;;;8.65;5.53;;;;;;;4.31;91.44;98175.63;4108644;28;20758;-91
2023/12/28 00:59:29;;;;;;;10.70;5.60;;;;;;;4.33;91.52;98173.84;4106841;28;20219;-90
2023/12/28 01:01:32;;;;;;;7.90;5.65;;;;;;;4.35;90.66;98178.94;4102723;28;20691;-90
2023/12/28 01:03:35;;;;;;;7.80;5.50;;;;;;;4.33;91.22;98185.88;4091226;28;20228;-91
2023/12/28 01:05:38;;;;;;;7.57;5.05;;;;;;;4.32;89.96;98174.75;4092975;28;20232;-89
2023/12/28 01:07:40;;;;;;;7.95;5.60;;;;;;;4.33;90.27;98179.00;4117321;28;20661;-90
2023/12/28 01:09:43;;;;;;;7.15;5.35;;;;;;;4.32;90.91;98166.16;4103118;28;20278;-91
2023/12/28 01:11:47;;;;;;;7.35;5.85;;;;;;;4.31;90.94;98167.88;4122837;28;20220;-90
2023/12/28 01:13:51;;;;;;;8.25;6.40;;;;;;;4.30;90.12;98171.41;4103589;28;20212;-90
2023/12/28 01:15:56;;;;;;;13.85;7.45;;;;;;;4.24;90.45;98176.81;4092865;28;20198;-90
2023/12/28 01:17:59;;;;;;;10.20;7.68;;;;;;;4.20;90.85;98174.44;4090861;28;20220;-90
2023/12/28 01:20:04;;;;;;;9.95;6.65;;;;;;;4.18;90.92;98170.22;4108886;28;20260;-85
2023/12/28 01:22:07;;;;;;;15.60;6.68;;;;;;;4.18;91.02;98171.09;4091601;28;20213;-84
2023/12/28 01:24:11;;;;;;;10.45;6.82;;;;;;;4.16;91.26;98166.88;4090868;28;20643;-84
2023/12/28 01:26:15;;;;;;;11.68;6.75;;;;;;;4.19;91.00;98180.47;4098059;28;20295;-84
2023/12/28 01:28:18;;;;;;;10.10;5.80;;;;;;;4.18;89.82;98183.13;4092509;28;20202;-85
2023/12/28 01:30:21;;;;;;;10.35;5.88;;;;;;;4.18;91.17;98190.88;4104837;28;20697;-85
2023/12/28 01:32:26;;;;;;;8.30;6.03;;;;;;;4.20;91.26;98184.75;4109337;28;20205;-85
2023/12/28 01:34:29;;;;;;;8.20;5.50;;;;;;;4.20;91.65;98180.41;4107115;28;20209;-85
2023/12/28 01:36:33;;;;;;;8.57;6.03;;;;;;;4.21;90.50;98181.28;4117593;28;20216;-85
2023/12/28 01:38:36;;;;;;;7.68;5.63;;;;;;;4.23;90.97;98189.78;4091576;28;20213;-84
2023/12/28 01:40:45;;;;;;;9.82;5.88;;;;;;;4.21;90.53;98189.00;4090453;28;20210;-85
2023/12/28 01:42:48;;;;;;;8.88;5.97;;;;;;;4.20;90.79;98190.72;4103007;28;20596;-85
2023/12/28 01:44:51;;;;;;;10.30;6.20;;;;;;;4.21;91.56;98202.75;4104136;28;20735;-85
2023/12/28 01:46:54;;;;;;;11.10;5.88;;;;;;;4.21;90.93;98207.06;4086942;28;20656;-84
2023/12/28 01:48:59;;;;;;;7.97;6.00;;;;;;;4.18;91.54;98204.63;4091059;28;20213;-85
2023/12/28 01:51:03;;;;;;;9.45;6.55;;;;;;;4.17;90.87;98213.25;4091882;28;20660;-86
2023/12/28 01:53:07;;;;;;;7.75;5.50;;;;;;;4.17;91.69;98215.00;4101986;28;20209;-84
2023/12/28 01:55:11;;;;;;;8.50;5.40;;;;;;;4.15;90.74;98215.06;4103842;28;20212;-84
2023/12/28 01:57:13;;;;;;;8.07;5.57;;;;;;;4.14;91.17;98213.38;4102441;28;20364;-85
2023/12/28 01:59:18;;;;;;;8.43;5.28;;;;;;;4.14;90.49;98215.13;4103744;28;20609;-84
2023/12/28 02:01:21;;;;;;;7.50;5.38;;;;;;;4.11;90.49;98213.50;4091333;28;20712;-84
2023/12/28 02:03:24;;;;;;;8.25;5.35;;;;;;;4.13;90.95;98218.59;4103653;28;20217;-85
2023/12/28 02:05:29;;;;;;;9.75;5.40;;;;;;;4.15;90.51;98217.66;4101880;28;20232;-85
2023/12/28 02:07:33;;;;;;;7.68;5.35;;;;;;;4.13;90.66;98216.84;4091303;28;20219;-84
2023/12/28 02:09:37;;;;;;;8.52;5.07;;;;;;;4.11;90.42;98229.00;4093466;28;20551;-84
2023/12/28 02:11:40;;;;;;;9.20;5.18;;;;;;;4.10;90.09;98221.31;4106617;28;20305;-84
2023/12/28 02:13:44;;;;;;;8.93;5.53;;;;;;;4.06;90.11;98230.06;4109578;28;20205;-84
2023/12/28 02:15:48;;;;;;;9.80;5.50;;;;;;;4.04;90.78;98229.31;4095145;28;20208;-84
2023/12/28 02:17:56;;;;;;;8.57;5.18;;;;;;;4.03;90.13;98240.50;4095402;28;20206;-85
2023/12/28 02:20:05;;;;;;;9.25;5.10;;;;;;;4.05;89.75;98233.56;4109449;28;20283;-86
2023/12/28 02:22:10;;;;;;;8.02;5.30;;;;;;;4.02;90.39;98228.53;4105997;28;20200;-85
2023/12/28 02:24:13;;;;;;;8.48;4.80;;;;;;;4.01;90.17;98222.50;4107049;28;20734;-84
2023/12/28 02:26:17;;;;;;;9.35;6.32;;;;;;;4.00;90.79;98243.22;4107875;28;20236;-82
2023/12/28 02:28:20;;;;;;;7.35;5.55;;;;;;;3.99;90.91;98239.81;4109817;28;20207;-82
2023/12/28 02:30:24;;;;;;;8.82;5.40;;;;;;;4.00;91.30;98240.63;4105107;28;20988;-82
2023/12/28 02:32:35;;;;;;;9.45;5.30;;;;;;;3.99;91.13;98237.22;4108609;28;20209;-82
2023/12/28 02:34:40;;;;;;;8.45;5.03;;;;;;;4.00;90.38;98232.91;4090513;28;20195;-82
2023/12/28 02:36:46;;;;;;;6.85;4.63;;;;;;;4.01;90.80;98232.00;4122255;28;20315;-83
2023/12/28 02:38:50;;;;;;;13.85;5.95;;;;;;;4.03;89.75;98243.09;4105490;28;20284;-83
2023/12/28 02:40:54;;;;;;;7.57;5.30;;;;;;;4.03;90.83;98245.66;4124580;28;20275;-82
2023/12/28 02:42:58;;;;;;;7.25;5.20;;;;;;;4.03;91.69;98232.78;4105101;28;20559;-82
2023/12/28 02:45:01;;;;;;;7.93;5.05;;;;;;;4.05;90.78;98236.16;4105513;28;20735;-82
2023/12/28 02:47:05;;;;;;;10.32;5.50;;;;;;;4.06;90.83;98233.50;4088382;28;20206;-83
2023/12/28 02:49:10;;;;;;;8.23;5.05;;;;;;;4.07;90.90;98235.16;4110254;28;20244;-82
2023/12/28 02:51:16;;;;;;;8.30;5.50;;;;;;;4.06;90.96;98230.06;4111025;28;20699;-82
2023/12/28 02:53:19;;;;;;;7.50;4.53;;;;;;;4.06;90.54;98224.91;4109548;28;20705;-83
2023/12/28 02:55:22;;;;;;;7.50;5.25;;;;;;;4.05;91.16;98233.56;4092637;28;20197;-81
2023/12/28 02:57:25;;;;;;;7.97;4.40;;;;;;;4.07;91.33;98218.84;4108898;28;20809;-83
2023/12/28 02:59:30;;;;;;;9.80;4.75;;;;;;;4.07;91.35;98229.19;4094044;28;20217;-82
2023/12/28 03:01:33;;;;;;;7.15;4.53;;;;;;;4.07;90.66;98229.19;4093011;28;20237;-82
2023/12/28 03:03:36;;;;;;;6.25;4.57;;;;;;;4.08;90.80;98230.88;4106844;28;20247;-82
2023/12/28 03:05:38;;;;;;;8.25;5.15;;;;;;;4.04;91.46;98227.53;4111831;28;20707;-82
2023/12/28 03:07:42;;;;;;;7.07;5.18;;;;;;;4.04;90.98;98229.31;4092455;28;20218;-83
2023/12/28 03:09:46;;;;;;;7.15;5.07;;;;;;;4.07;90.27;98224.84;4108053;28;20201;-82
2023/12/28 03:11:49;;;;;;;10.02;4.85;;;;;;;4.08;91.43;98233.44;4108962;28;20260;-82
2023/12/28 03:13:52;;;;;;;7.75;4.65;;;;;;;4.05;90.91;98231.81;4090868;28;20740;-82
2023/12/28 03:15:57;;;;;;;6.90;5.13;;;;;;;4.07;90.38;98232.59;4095595;28;20197;-82
2023/12/28 03:18:00;;;;;;;10.02;4.95;;;;;;;4.07;90.32;98227.41;4107643;28;20193;-84
2023/12/28 03:20:06;;;;;;;7.80;4.97;;;;;;;4.08;90.43;98228.28;4110380;28;20209;-83
2023/12/28 03:22:09;;;;;;;7.97;4.70;;;;;;;4.07;90.64;98236.91;4103780;28;20218;-82
2023/12/28 03:24:12;;;;;;;7.18;4.35;;;;;;;4.06;90.99;98227.50;4091410;28;20301;-82
2023/12/28 03:26:16;;;;;;;7.35;4.35;;;;;;;4.08;91.43;98220.53;4108791;28;20233;-82
2023/12/28 03:28:20;;;;;;;6.65;4.53;;;;;;;4.12;91.57;98233.25;4109516;28;20557;-82
2023/12/28 03:30:23;;;;;;;6.47;4.15;;;;;;;4.15;91.51;98237.44;4109642;28;20276;-82
2023/12/28 03:32:28;;;;;;;6.50;4.65;;;;;;;4.16;91.25;98227.06;4110525;28;20598;-82
2023/12/28 03:34:31;;;;;;;8.13;5.05;;;;;;;4.19;90.62;98226.09;4090008;28;20583;-84
2023/12/28 03:36:34;;;;;;;6.95;5.15;;;;;;;4.18;90.96;98232.16;4109632;28;20647;-83
2023/12/28 03:38:37;;;;;;;8.00;4.35;;;;;;;4.17;91.29;98240.81;4092484;29;20216;-83
2023/12/28 03:40:41;;;;;;;7.07;4.70;;;;;;;4.21;91.16;98230.31;4098197;28;20201;-88
2023/12/28 03:42:45;;;;;;;7.63;4.20;;;;;;;4.27;92.06;98227.47;4109110;28;20260;-89
2023/12/28 03:44:48;;;;;;;8.00;5.30;;;;;;;4.34;92.21;98237.44;4090890;28;20863;-89
2023/12/28 03:46:51;;;;;;;7.50;4.88;;;;;;;4.39;90.93;98238.13;4107423;28;20232;-88
2023/12/28 03:48:55;;;;;;;6.85;4.70;;;;;;;4.41;91.32;98231.13;4108663;28;20241;-89
2023/12/28 03:50:58;;;;;;;9.05;4.97;;;;;;;4.41;90.80;98228.56;4090671;28;20203;-86
2023/12/28 03:53:02;;;;;;;7.53;4.75;;;;;;;4.40;90.65;98233.78;4107480;28;20213;-85
2023/12/28 03:55:05;;;;;;;6.00;4.35;;;;;;;4.44;90.94;98230.19;4089019;28;20308;-89
2023/12/28 03:57:08;;;;;;;5.13;3.80;;;;;;;4.48;90.85;98235.16;4105321;28;20235;-87
2023/12/28 03:59:11;;;;;;;6.85;4.70;;;;;;;4.53;91.83;98232.38;4089022;28;20312;-89
2023/12/28 04:01:13;;;;;;;6.93;4.88;;;;;;;4.56;91.79;98235.66;4108628;28;20208;-88
2023/12/28 04:03:17;;;;;;;5.75;4.05;;;;;;;4.61;92.13;98233.72;4121090;28;20662;-86
2023/12/28 04:05:22;;;;;;;7.82;4.70;;;;;;;4.64;91.42;98235.34;4090462;28;20203;-88
2023/12/28 04:07:25;;;;;;;9.48;4.50;;;;;;;4.68;92.36;98234.31;4092265;28;20238;-89
2023/12/28 04:09:28;;;;;;;8.27;4.20;;;;;;;4.71;92.72;98232.44;4104398;28;20239;-87
2023/12/28 04:11:31;;;;;;;8.10;4.93;;;;;;;4.72;92.59;98226.34;4088010;28;20306;-88
2023/12/28 04:13:34;;;;;;;6.32;4.20;;;;;;;4.74;92.04;98229.72;4087024;28;20270;-86
2023/12/28 04:15:37;;;;;;;8.05;4.32;;;;;;;4.75;91.43;98226.19;4107338;28;20206;-88
2023/12/28 04:17:40;;;;;;;13.77;4.40;;;;;;;4.78;92.52;98228.66;4087236;28;20212;-89
2023/12/28 04:19:43;;;;;;;6.30;4.45;;;;;;;4.80;92.00;98229.44;4100191;28;20289;-88
2023/12/28 04:21:48;;;;;;;6.28;3.90;;;;;;;4.78;92.47;98226.06;4107464;28;20264;-89
2023/12/28 04:23:51;;;;;;;5.72;4.43;;;;;;;4.83;92.47;98231.91;4118471;28;20243;-88
2023/12/28 04:25:54;;;;;;;7.25;4.47;;;;;;;4.86;92.46;98235.19;4107390;28;20930;-88
2023/12/28 04:27:58;;;;;;;7.35;4.10;;;;;;;4.91;93.08;98232.38;4109508;28;20251;-88
2023/12/28 04:30:02;;;;;;;7.05;4.80;;;;;;;4.96;92.87;98233.03;4092712;28;20749;-88
2023/12/28 04:32:06;;;;;;;7.20;4.43;;;;;;;4.98;93.06;98228.66;4086748;28;20381;-88
2023/12/28 04:34:09;;;;;;;7.40;4.43;;;;;;;5.02;93.05;98225.84;4112168;28;20201;-88
2023/12/28 04:36:12;;;;;;;6.60;4.40;;;;;;;5.04;93.90;98225.78;4109218;28;20213;-87
2023/12/28 04:38:17;;;;;;;7.68;4.30;;;;;;;5.05;92.52;98210.22;4091434;28;20733;-88
2023/12/28 04:40:20;;;;;;;8.00;4.80;;;;;;;5.04;92.52;98205.94;4091034;28;20654;-87
2023/12/28 04:42:24;;;;;;;6.90;4.43;;;;;;;5.03;91.84;98206.84;4108810;28;20977;-88
2023/12/28 04:44:27;;;;;;;7.40;4.95;;;;;;;4.99;91.68;98200.16;4093038;28;20666;-88
2023/12/28 04:46:30;;;;;;;5.00;3.80;;;;;;;4.99;90.58;98196.72;4092470;28;20714;-88
2023/12/28 04:48:33;;;;;;;7.78;4.43;;;;;;;5.06;91.62;98198.13;4109396;28;20248;-87
2023/12/28 04:50:37;;;;;;;6.65;4.25;;;;;;;5.12;91.55;98206.44;4088326;28;20217;-88
2023/12/28 04:52:42;;;;;;;8.25;4.88;;;;;;;5.21;91.85;98200.84;4106856;28;20210;-88
2023/12/28 04:54:46;;;;;;;6.00;3.65;;;;;;;5.25;91.26;98200.63;4104024;28;20304;-87
2023/12/28 04:56:48;;;;;;;6.47;3.40;;;;;;;5.40;91.02;98212.88;4124380;28;20260;-89
2023/12/28 04:58:51;;;;;;;7.13;4.32;;;;;;;5.59;89.94;98200.75;4123312;28;20210;-87
2023/12/28 05:00:55;;;;;;;7.93;3.80;;;;;;;5.66;91.20;98204.72;4106284;28;20244;-87
2023/12/28 05:02:58;;;;;;;8.63;4.65;;;;;;;5.68;91.58;98200.31;4090857;28;20213;-88
2023/12/28 05:05:01;;;;;;;9.60;5.13;;;;;;;5.70;91.57;98190.75;4108760;28;20711;-88
2023/12/28 05:07:05;;;;;;;3.95;3.25;;;;;;;5.72;90.10;98184.56;4106498;28;20225;-88
2023/12/28 05:09:08;;;;;;;6.85;2.92;;;;;;;5.87;89.09;98204.56;4104202;28;20302;-87
2023/12/28 05:11:13;;;;;;;4.03;2.63;;;;;;;6.03;87.41;98215.88;4104012;28;20211;-87
2023/12/28 05:13:16;;;;;;;6.25;3.58;;;;;;;6.23;87.54;98226.09;4104231;28;20244;-87
2023/12/28 05:15:19;;;;;;;5.82;3.30;;;;;;;6.27;87.48;98230.19;4104641;28;20241;-87
2023/12/28 05:17:23;;;;;;;6.35;4.60;;;;;;;6.23;87.36;98228.69;4092578;28;20209;-89
2023/12/28 05:19:26;;;;;;;5.22;3.47;;;;;;;6.24;87.09;98228.59;4105855;28;20338;-88
2023/12/28 05:21:29;;;;;;;6.22;3.85;;;;;;;6.23;88.34;98239.84;4121193;28;20846;-88
2023/12/28 05:23:32;;;;;;;5.28;3.90;;;;;;;6.19;87.51;98237.50;4117878;28;20275;-88
2023/12/28 05:25:35;;;;;;;6.45;3.95;;;;;;;6.13;88.25;98230.03;4117868;28;20208;-88
2023/12/28 05:27:42;;;;;;;6.25;4.25;;;;;;;6.10;88.62;98233.63;4103056;28;20625;-87
2023/12/28 05:29:45;;;;;;;6.72;4.20;;;;;;;6.09;88.04;98236.28;4105108;28;20209;-88
2023/12/28 05:31:48;;;;;;;6.40;4.10;;;;;;;6.04;88.26;98230.47;4111740;28;20273;-87
2023/12/28 05:33:51;;;;;;;6.40;4.20;;;;;;;6.05;89.17;98239.09;4105487;28;20206;-88
2023/12/28 05:35:54;;;;;;;6.53;4.55;;;;;;;6.04;89.09;98238.22;4117881;28;20754;-89
2023/12/28 05:37:58;;;;;;;6.72;4.20;;;;;;;6.06;89.52;98245.94;4107439;28;20202;-87
2023/12/28 05:40:01;;;;;;;5.40;3.90;;;;;;;6.07;89.51;98258.78;4108305;28;20214;-85
2023/12/28 05:42:04;;;;;;;8.55;5.43;;;;;;;6.08;89.59;98264.84;4104864;28;20211;-86
2023/12/28 05:44:09;;;;;;;5.07;3.80;;;;;;;6.09;89.43;98263.00;4107614;28;20208;-88
2023/12/28 05:46:12;;;;;;;5.90;4.25;;;;;;;6.11;90.07;98261.16;4109323;28;20655;-88
2023/12/28 05:48:15;;;;;;;5.65;4.25;;;;;;;6.13;90.41;98268.84;4111385;28;20224;-88
2023/12/28 05:50:18;;;;;;;5.93;4.30;;;;;;;6.16;91.10;98271.28;4108906;28;20301;-88
2023/12/28 05:52:22;;;;;;;5.43;3.80;;;;;;;6.17;88.96;98273.00;4109202;28;20225;-88
2023/12/28 05:54:26;;;;;;;6.72;5.38;;;;;;;6.18;89.90;98270.31;4109178;28;20227;-87
2023/12/28 05:56:29;;;;;;;7.40;6.28;;;;;;;6.19;90.93;98274.59;4111160;28;20623;-87
2023/12/28 05:58:32;;;;;;;11.55;7.63;;;;;;;6.21;90.70;98270.19;4109224;28;20612;-88
2023/12/28 06:00:38;;;;;;;10.43;7.43;;;;;;;6.21;90.19;98275.34;4107958;28;20199;-82
2023/12/28 06:02:41;;;;;;;9.13;6.45;;;;;;;6.21;90.65;98288.31;4109187;28;20232;-81
2023/12/28 06:04:45;;;;;;;5.57;4.95;;;;;;;6.24;90.39;98288.16;4109777;28;20207;-83
2023/12/28 06:06:47;;;;;;;7.65;4.50;;;;;;;6.30;90.88;98284.41;4125498;28;20221;-81
2023/12/28 06:08:51;;;;;;;5.68;4.65;;;;;;;6.33;90.65;98295.47;4107477;28;20276;-82
2023/12/28 06:10:54;;;;;;;6.40;4.28;;;;;;;6.37;89.96;98307.34;4109729;28;20212;-82
2023/12/28 06:12:57;;;;;;;6.38;4.53;;;;;;;6.39;89.91;98312.44;4106364;28;20271;-82
2023/12/28 06:15:01;;;;;;;5.50;3.92;;;;;;;6.42;89.84;98310.56;4090812;29;20216;-83
2023/12/28 06:17:06;;;;;;;6.03;4.50;;;;;;;6.45;89.74;98315.59;4106635;28;20260;-82
2023/12/28 06:19:09;;;;;;;5.28;3.95;;;;;;;6.43;91.00;98308.81;4108538;28;20201;-83
2023/12/28 06:21:13;;;;;;;4.82;4.10;;;;;;;6.45;90.35;98319.94;4093231;28;20235;-83
2023/12/28 06:23:16;;;;;;;6.40;3.92;;;;;;;6.47;91.07;98311.19;4107191;28;20714;-82
2023/12/28 06:25:19;;;;;;;6.10;4.13;;;;;;;6.50;91.30;98316.22;4108040;28;20220;-82
2023/12/28 06:27:23;;;;;;;5.82;3.80;;;;;;;6.54;89.81;98325.53;4111411;28;20292;-83
2023/12/28 06:29:26;;;;;;;5.60;4.18;;;;;;;6.61;89.25;98321.69;4109952;28;20298;-82
2023/12/28 06:31:28;;;;;;;5.50;3.85;;;;;;;6.66;89.79;98319.72;4105648;28;20215;-83
2023/12/28 06:33:33;;;;;;;8.35;4.90;;;;;;;6.65;89.65;98321.47;4103950;28;20223;-82
2023/12/28 06:35:36;;;;;;;5.22;4.05;;;;;;;6.65;90.76;98321.47;4107821;28;20292;-82
2023/12/28 06:37:39;;;;;;;6.18;4.00;;;;;;;6.67;91.76;98311.03;4091343;28;20202;-82
2023/12/28 06:39:42;;;;;;;8.02;4.38;;;;;;;6.67;90.31;98303.25;4105442;28;20296;-83
2023/12/28 06:41:48;;;;;;;6.43;4.25;;;;;;;6.67;90.27;98296.31;4099954;28;20200;-82
2023/12/28 06:43:50;;;;;;;8.05;4.50;;;;;;;6.73;89.45;98302.97;4092144;28;20987;-82
2023/12/28 06:45:53;;;;;;;10.02;4.63;;;;;;;6.77;89.66;98309.69;4111380;28;20269;-82
2023/12/28 06:47:56;;;;;;;6.22;3.58;;;;;;;6.85;89.03;98310.13;4105568;28;20245;-82
2023/12/28 06:50:01;;;;;;;4.13;3.00;;;;;;;6.98;88.24;98313.78;4092168;28;20231;-83
2023/12/28 06:52:05;;;;;;;4.18;2.15;;;;;;;7.14;86.18;98325.88;4094447;28;20235;-83
2023/12/28 06:54:08;;;;;;;5.05;3.20;;;;;;;7.31;86.77;98323.28;4109489;28;20219;-83
2023/12/28 06:56:11;;;;;;;4.95;3.60;;;;;;;7.32;87.90;98319.75;4093942;28;20237;-82
2023/12/28 06:58:14;;;;;;;6.93;4.15;;;;;;;7.28;87.57;98321.66;4108716;28;20615;-83
2023/12/28 07:00:20;;;;;;;6.25;3.92;;;;;;;7.32;88.67;98330.97;4106605;28;20211;-83
2023/12/28 07:02:23;;;;;;;12.13;4.93;;;;;;;7.36;88.25;98337.66;4088941;28;20342;-82
2023/12/28 07:04:29;;;;;;;7.35;5.03;;;;;;;7.34;88.83;98336.91;4092448;28;20224;-82
2023/12/28 07:06:33;;;;;;;8.18;4.90;;;;;;;7.31;88.43;98342.25;4107709;28;20209;-82
2023/12/28 07:08:37;;;;;;;10.68;4.45;;;;;;;7.28;88.88;98347.59;4111528;28;20227;-82
2023/12/28 07:10:40;;;;;;;6.95;4.15;;;;;;;7.26;87.77;98341.66;4109619;28;20579;-87
2023/12/28 07:12:42;;;;;;;4.90;3.88;;;;;;;7.25;87.99;98352.94;4107650;28;20209;-88
2023/12/28 07:14:45;;;;;;;6.00;3.90;;;;;;;7.26;87.73;98339.06;4107291;28;20328;-87
2023/12/28 07:16:48;;;;;;;6.97;4.40;;;;;;;7.27;87.99;98343.31;4120874;28;20205;-88
2023/12/28 07:18:54;;;;;;;6.47;4.60;;;;;;;7.29;89.07;98346.69;4106413;28;21000;-87
2023/12/28 07:20:57;;;;;;;8.98;4.72;;;;;;;7.32;88.13;98349.13;4095283;28;20260;-88
2023/12/28 07:23:01;;;;;;;7.15;4.78;;;;;;;7.32;88.81;98353.47;4108453;28;20630;-88
2023/12/28 07:25:06;;;;;;;7.18;5.10;;;;;;;7.34;89.99;98355.06;4124806;28;20215;-88
2023/12/28 07:27:08;;;;;;;7.75;4.40;;;;;;;7.35;91.00;98361.94;4108048;28;20203;-88
2023/12/28 07:29:11;;;;;;;7.78;4.70;;;;;;;7.35;89.81;98366.28;4090581;28;20246;-86
2023/12/28 07:31:23;;;;;;;7.20;4.85;;;;;;;7.34;90.25;98369.81;4122106;28;20303;-88
2023/12/28 07:33:27;;;;;;;7.35;4.72;;;;;;;7.35;90.31;98374.91;4098557;28;20247;-88
2023/12/28 07:35:30;;;;;;;8.75;5.20;;;;;;;7.34;89.57;98368.03;4105833;28;20214;-87
2023/12/28 07:37:34;;;;;;;9.88;5.75;;;;;;;7.35;90.13;98361.09;4106257;28;20204;-88
2023/12/28 07:39:38;;;;;;;8.05;5.22;;;;;;;7.34;89.99;98370.63;4108660;28;20225;-88
2023/12/28 07:41:41;;;;;;;8.98;5.50;;;;;;;7.33;89.57;98368.94;4108560;28;20210;-89
2023/12/28 07:43:45;;;;;;;9.30;5.65;;;;;;;7.34;90.57;98370.63;4106853;28;20215;-88
2023/12/28 07:45:47;;;;;;;7.18;4.70;;;;;;;7.37;90.17;98374.84;4120590;28;20220;-87
2023/12/28 07:47:51;;;;;;;9.75;4.97;;;;;;;7.40;91.31;98379.88;4091054;28;20218;-88
2023/12/28 07:49:55;;;;;;;8.45;4.90;;;;;;;7.41;90.74;98371.16;4103633;28;24927;-86
2023/12/28 07:52:16;;;;;;;9.95;7.07;;;;;;;7.46;90.24;98375.19;4105557;28;20209;-87
2023/12/28 07:54:19;;;;;;;10.35;6.50;;;;;;;7.49;92.40;98369.84;4103913;28;20249;-87
2023/12/28 07:56:24;;;;;;;12.82;7.10;;;;;;;7.52;90.74;98378.31;4107929;28;20240;-86
2023/12/28 07:58:27;;;;;;;13.52;7.72;;;;;;;7.54;91.80;98373.88;4091524;28;20221;-88
2023/12/28 08:00:29;;;;;;;12.23;7.20;;;;;;;7.59;92.13;98368.44;4109654;28;20312;-87
2023/12/28 08:02:32;;;;;;;16.63;9.82;;;;;;;7.61;90.52;98361.44;4108494;28;20216;-87
2023/12/28 08:04:35;;;;;;;14.27;10.57;;;;;;;7.59;91.59;98371.91;4099963;28;20215;-87
2023/12/28 08:06:51;;;;;;;15.77;9.82;;;;;;;7.59;89.86;98373.63;4102414;28;24746;-87
2023/12/28 08:08:54;;;;;;;16.25;9.45;;;;;;;7.60;91.13;98377.91;4107451;28;20247;-89
2023/12/28 08:10:57;;;;;;;23.45;16.67;;;;;;;7.60;90.17;98372.72;4100898;28;20225;-86
2023/12/28 08:13:03;;;;;;;15.10;9.88;;;;;;;7.59;90.06;98374.50;4110878;28;20210;-87
2023/12/28 08:15:07;;;;;;;12.90;8.75;;;;;;;7.62;91.54;98370.88;4103282;28;20228;-88
2023/12/28 08:17:35;;;;;;;10.50;6.75;;;;;;;7.65;89.95;98373.31;4122810;28;20600;-88
2023/12/28 08:19:37;;;;;;;8.68;5.70;;;;;;;7.69;89.83;98372.25;4106702;28;20237;-82
2023/12/28 08:21:41;;;;;;;12.27;8.00;;;;;;;7.70;90.54;98369.56;4107893;28;20415;-88
2023/12/28 08:23:44;;;;;;;14.50;11.48;;;;;;;7.70;90.19;98366.16;4110193;28;20236;-88
2023/12/28 08:25:47;;;;;;;12.35;8.30;;;;;;;7.73;90.35;98374.59;4106860;28;20264;-85
2023/12/28 08:27:50;;;;;;;13.98;8.70;;;;;;;7.78;90.63;98374.34;4122525;28;20234;-87
2023/12/28 08:29:55;;;;;;;11.18;7.47;;;;;;;7.79;90.74;98369.09;4108879;28;20493;-84
2023/12/28 08:32:10;;;;;;;14.30;10.30;;;;;;;7.87;90.72;98361.72;4096973;28;20212;-85
2023/12/28 08:34:15;;;;;;;17.90;12.43;;;;;;;7.88;91.89;98366.00;4108028;28;20207;-84
2023/12/28 08:36:18;;;;;;;14.40;9.32;;;;;;;7.90;92.12;98365.91;4105632;28;20260;-84
2023/12/28 08:38:21;;;;;;;15.13;8.88;;;;;;;7.95;91.14;98363.91;4108347;28;20803;-85
2023/12/28 08:40:25;;;;;;;19.52;14.98;;;;;;;7.97;92.49;98363.75;4091257;28;20215;-85
2023/12/28 08:42:28;;;;;;;42.20;24.48;;;;;;;8.01;91.59;98365.25;4087044;28;20217;-86
2023/12/28 08:44:32;;;;;;;20.05;13.23;;;;;;;8.07;91.52;98375.31;4093205;28;20210;-84
2023/12/28 08:46:46;;;;;;;33.95;20.58;;;;;;;8.13;93.17;98380.22;4103356;28;20864;-84
2023/12/28 08:48:50;;;;;;;17.90;12.65;;;;;;;8.15;93.41;98388.75;4106534;28;20211;-86
2023/12/28 08:50:53;;;;;;;17.27;13.20;;;;;;;8.14;91.25;98387.06;4110141;28;20208;-85
2023/12/28 08:52:56;;;;;;;18.92;16.92;;;;;;;8.13;92.26;98390.63;4109729;28;20205;-85
2023/12/28 08:55:00;;;;;;;17.45;15.20;;;;;;;8.13;92.44;98382.81;4105827;28;20677;-86
2023/12/28 08:57:12;;;;;;;14.90;11.95;;;;;;;8.09;91.38;98377.84;4108445;28;20221;-85
2023/12/28 08:59:15;;;;;;;13.20;11.10;;;;;;;8.12;91.17;98381.13;4123687;28;20204;-85
2023/12/28 09:01:19;;;;;;;14.10;11.20;;;;;;;8.15;92.67;98374.94;4107427;28;20204;-86
2023/12/28 09:03:24;;;;;;;12.60;9.68;;;;;;;8.17;92.34;98371.31;4123449;28;20209;-84
2023/12/28 09:05:27;;;;;;;14.63;11.90;;;;;;;8.22;91.99;98373.66;4093942;28;20210;-85
2023/12/28 09:07:30;;;;;;;16.27;12.25;;;;;;;8.22;93.25;98386.66;4108862;28;20225;-83
2023/12/28 09:09:34;;;;;;;13.55;9.10;;;;;;;8.23;91.89;98394.38;4110228;28;20257;-83
2023/12/28 09:11:49;;;;;;;10.20;7.78;;;;;;;8.27;91.94;98392.44;4113697;28;20296;-84
2023/12/28 09:13:52;;;;;;;13.05;8.57;;;;;;;8.26;92.11;98389.00;4102025;28;20239;-84
2023/12/28 09:15:56;;;;;;;13.82;10.65;;;;;;;8.22;92.17;98386.66;4107015;28;20297;-85
2023/12/28 09:17:59;;;;;;;22.10;16.15;;;;;;;8.28;92.06;98394.94;4106930;28;20661;-84
2023/12/28 09:20:06;;;;;;;16.55;12.20;;;;;;;8.33;92.38;98387.75;4108333;28;20728;-85
2023/12/28 09:22:08;;;;;;;15.55;11.57;;;;;;;8.37;92.81;98378.84;4107919;28;20201;-84
2023/12/28 09:24:11;;;;;;;15.77;11.43;;;;;;;8.42;93.95;98384.66;4106979;28;20269;-85
2023/12/28 09:26:14;;;;;;;38.00;30.48;;;;;;;8.45;93.41;98387.09;4109844;28;20208;-85
2023/12/28 09:28:17;;;;;;;87.43;55.80;;;;;;;8.49;93.68;98380.78;4111329;28;20291;-85
2023/12/28 09:30:20;;;;;;;25.25;19.40;;;;;;;8.50;93.56;98380.69;4107799;28;20267;-85
2023/12/28 09:32:23;;;;;;;28.38;20.30;;;;;;;8.51;92.48;98386.75;4111088;28;20221;-84
2023/12/28 09:34:27;;;;;;;23.77;16.55;;;;;;;8.51;93.12;98382.38;4088838;28;21015;-83
2023/12/28 09:36:38;;;;;;;21.27;14.57;;;;;;;8.53;91.67;98390.94;4103600;28;20254;-83
2023/12/28 09:38:41;;;;;;;18.38;14.18;;;;;;;8.55;92.73;98389.09;4108261;28;20663;-83
2023/12/28 09:40:45;;;;;;;19.17;13.40;;;;;;;8.55;91.93;98385.63;4104156;28;20224;-84
2023/12/28 09:42:54;;;;;;;15.20;11.70;;;;;;;8.56;93.19;98400.31;4109559;28;20292;-86
2023/12/28 09:44:58;;;;;;;11.98;9.30;;;;;;;8.62;92.61;98408.63;4107388;28;20212;-87
2023/12/28 09:47:04;;;;;;;15.40;11.60;;;;;;;8.71;94.29;98415.06;4110263;28;20294;-84
2023/12/28 09:49:08;;;;;;;19.20;13.82;;;;;;;8.79;93.00;98410.28;4112014;28;20197;-83